Time;durP1;ratioP1;P1;durP2;ratioP2;P2;SDS_P1;SDS_P2;PMS_P1;PMS_P2;Temp;Humidity;BMP_temperature;BMP_pressure;BME280_temperature;BME280_humidity;BME280_pressure;Samples;Min_cycle;Max_cycle;Signal;HPM_P1;HPM_P2
2022/01/14 00:02:18;;;;;;;;;;;23.30;21.60;;;;;;5121171;27;19930;-52
2022/01/14 00:04:43;;;;;;;;;;;23.10;21.70;;;;;;5126083;27;19930;-49
2022/01/14 00:07:09;;;;;;;;;;;23.30;21.60;;;;;;5121449;27;19962;-49
2022/01/14 00:09:36;;;;;;;;;;;23.20;21.60;;;;;;5121218;27;19967;-52
2022/01/14 00:12:09;;;;;;;;;;;23.30;21.60;;;;;;5124756;27;19927;-46
2022/01/14 00:14:38;;;;;;;;;;;23.30;21.60;;;;;;5121216;27;19930;-46
2022/01/14 00:17:04;;;;;;;;;;;23.10;21.70;;;;;;5120945;27;19975;-45
2022/01/14 00:19:30;;;;;;;;;;;23.00;21.70;;;;;;5126295;27;20390;-50
2022/01/14 00:21:56;;;;;;;;;;;23.00;21.70;;;;;;5120950;27;20013;-46
2022/01/14 00:32:18;;;;;;;;;;;23.00;21.70;;;;;;5123217;28;19934;-53
2022/01/14 00:34:44;;;;;;;;;;;23.00;21.60;;;;;;5126353;28;19923;-47
2022/01/14 00:37:10;;;;;;;;;;;22.90;21.70;;;;;;5120665;28;19927;-47
2022/01/14 00:39:36;;;;;;;;;;;23.00;21.60;;;;;;5126153;28;19923;-45
2022/01/14 00:42:02;;;;;;;;;;;23.00;21.60;;;;;;5121062;28;19976;-46
2022/01/14 00:44:27;;;;;;;;;;;23.00;21.60;;;;;;5120952;28;19927;-46
2022/01/14 00:46:53;;;;;;;;;;;23.00;21.50;;;;;;5126289;28;20017;-45
2022/01/14 00:49:20;;;;;;;;;;;23.10;21.50;;;;;;5119348;28;20290;-46
2022/01/14 00:51:46;;;;;;;;;;;23.00;21.50;;;;;;5120741;28;20434;-48
2022/01/14 00:54:12;;;;;;;;;;;23.00;21.50;;;;;;5126240;28;20014;-47
2022/01/14 00:59:16;;;;;;;;;;;23.10;21.40;;;;;;5126102;28;19933;-48
2022/01/14 01:01:45;;;;;;;;;;;23.10;21.40;;;;;;5123120;28;19987;-47
2022/01/14 01:04:11;;;;;;;;;;;23.10;21.40;;;;;;5120828;28;20018;-50
2022/01/14 01:06:37;;;;;;;;;;;23.20;21.30;;;;;;5124241;28;19923;-47
2022/01/14 01:09:07;;;;;;;;;;;23.10;21.30;;;;;;5102030;28;20289;-50
2022/01/14 01:11:36;;;;;;;;;;;23.10;21.30;;;;;;5120792;28;20010;-51
2022/01/14 01:14:13;;;;;;;;;;;23.10;21.30;;;;;;5125976;27;19927;-51
2022/01/14 01:16:39;;;;;;;;;;;23.20;21.30;;;;;;5123500;27;19929;-49
2022/01/14 01:19:05;;;;;;;;;;;23.20;21.30;;;;;;5124463;27;20123;-49
2022/01/14 01:21:31;;;;;;;;;;;23.20;21.20;;;;;;5129893;27;19927;-48
2022/01/14 01:23:57;;;;;;;;;;;23.20;21.30;;;;;;5124198;27;19924;-46
2022/01/14 01:26:42;;;;;;;;;;;23.20;21.20;;;;;;5125802;27;19927;-55
2022/01/14 01:31:40;;;;;;;;;;;23.20;21.30;;;;;;5123987;27;19974;-47
2022/01/14 01:34:10;;;;;;;;;;;23.20;21.30;;;;;;5109852;27;19923;-58
2022/01/14 01:36:36;;;;;;;;;;;23.30;21.20;;;;;;5128308;27;19976;-48
2022/01/14 01:39:03;;;;;;;;;;;23.20;21.20;;;;;;5124349;27;19934;-51
2022/01/14 01:41:29;;;;;;;;;;;23.30;21.20;;;;;;5129629;27;19927;-49
2022/01/14 01:43:55;;;;;;;;;;;23.30;21.20;;;;;;5122316;27;19938;-44
2022/01/14 01:46:21;;;;;;;;;;;23.10;21.30;;;;;;5124053;27;19928;-52
2022/01/14 01:48:47;;;;;;;;;;;23.30;21.20;;;;;;5129603;27;19923;-50
2022/01/14 01:51:13;;;;;;;;;;;23.30;21.20;;;;;;5123559;27;19927;-52
2022/01/14 01:53:39;;;;;;;;;;;23.20;21.20;;;;;;5123433;27;19931;-49
2022/01/14 01:56:04;;;;;;;;;;;23.30;21.10;;;;;;5129131;27;19988;-48
2022/01/14 01:58:30;;;;;;;;;;;23.30;21.10;;;;;;5123781;27;19930;-51
2022/01/14 02:00:56;;;;;;;;;;;23.20;21.10;;;;;;5128727;27;19931;-51
2022/01/14 02:03:22;;;;;;;;;;;23.20;21.10;;;;;;5122219;27;19924;-51
2022/01/14 02:05:48;;;;;;;;;;;23.30;21.10;;;;;;5105058;27;19923;-53
2022/01/14 02:08:14;;;;;;;;;;;23.20;21.10;;;;;;5110639;27;19923;-51
2022/01/14 02:10:40;;;;;;;;;;;23.30;21.00;;;;;;5123310;27;19924;-52
2022/01/14 02:13:06;;;;;;;;;;;23.20;21.10;;;;;;5123468;27;20024;-51
2022/01/14 02:23:23;;;;;;;;;;;23.30;20.90;;;;;;5128950;27;19934;-46
2022/01/14 02:25:48;;;;;;;;;;;23.30;21.00;;;;;;5102406;27;19932;-46
2022/01/14 02:28:16;;;;;;;;;;;23.30;21.00;;;;;;5127684;27;20385;-52
2022/01/14 02:30:42;;;;;;;;;;;23.00;21.10;;;;;;5124338;27;19927;-46
2022/01/14 02:33:09;;;;;;;;;;;23.00;21.20;;;;;;5123357;27;19931;-47
2022/01/14 02:35:34;;;;;;;;;;;23.10;21.10;;;;;;5128676;27;20018;-48
2022/01/14 02:38:00;;;;;;;;;;;22.90;21.30;;;;;;5122538;27;19934;-46
2022/01/14 02:40:26;;;;;;;;;;;22.90;21.20;;;;;;5121364;27;19976;-47
2022/01/14 02:42:53;;;;;;;;;;;22.90;21.20;;;;;;5128436;27;19927;-45
2022/01/14 02:45:21;;;;;;;;;;;22.90;21.20;;;;;;5122790;27;19945;-47
2022/01/14 02:47:47;;;;;;;;;;;22.90;21.20;;;;;;5122658;27;19927;-47
2022/01/14 02:50:17;;;;;;;;;;;22.90;21.20;;;;;;5128164;27;19931;-47
2022/01/14 02:55:20;;;;;;;;;;;22.90;21.10;;;;;;5109575;27;20448;-50
2022/01/14 02:57:47;;;;;;;;;;;22.90;21.10;;;;;;5121487;27;20000;-44
2022/01/14 03:00:13;;;;;;;;;;;22.90;21.10;;;;;;5122419;27;19923;-44
2022/01/14 03:02:42;;;;;;;;;;;22.80;21.10;;;;;;5128076;27;19924;-44
2022/01/14 03:05:08;;;;;;;;;;;22.90;21.10;;;;;;5122198;27;20014;-44
2022/01/14 03:07:35;;;;;;;;;;;22.80;21.10;;;;;;5122294;27;19923;-44
2022/01/14 03:10:01;;;;;;;;;;;22.80;21.20;;;;;;5109582;27;19924;-46
2022/01/14 03:12:26;;;;;;;;;;;22.80;21.10;;;;;;5122297;27;19978;-46
2022/01/14 03:14:53;;;;;;;;;;;22.90;21.10;;;;;;5122261;27;19973;-49
2022/01/14 03:17:19;;;;;;;;;;;22.90;21.10;;;;;;5125698;27;19923;-44
2022/01/14 03:19:46;;;;;;;;;;;22.80;21.20;;;;;;5122178;27;19929;-46
2022/01/14 03:22:21;;;;;;;;;;;22.80;21.20;;;;;;5127499;27;19924;-45
2022/01/14 03:27:12;;;;;;;;;;;22.90;21.10;;;;;;5103570;27;19930;-44
2022/01/14 03:29:38;;;;;;;;;;;22.80;21.10;;;;;;5127423;27;19946;-43
2022/01/14 03:32:04;;;;;;;;;;;22.90;21.10;;;;;;5122078;27;19935;-44
2022/01/14 03:34:30;;;;;;;;;;;22.80;21.10;;;;;;5120187;27;20004;-47
2022/01/14 03:36:56;;;;;;;;;;;22.80;21.20;;;;;;5126955;27;19927;-46
2022/01/14 03:39:22;;;;;;;;;;;22.90;21.10;;;;;;5120671;27;20019;-45
2022/01/14 03:41:47;;;;;;;;;;;22.80;21.20;;;;;;5126196;27;19923;-53
2022/01/14 03:44:13;;;;;;;;;;;22.90;21.20;;;;;;5122683;27;19944;-45
2022/01/14 03:46:39;;;;;;;;;;;22.80;21.10;;;;;;5121500;27;19923;-44
2022/01/14 03:49:05;;;;;;;;;;;22.90;21.10;;;;;;5127104;27;20018;-47
2022/01/14 03:51:30;;;;;;;;;;;22.80;21.10;;;;;;5121412;27;19940;-44
2022/01/14 03:53:56;;;;;;;;;;;22.90;21.10;;;;;;5119735;27;19927;-44
2022/01/14 03:56:25;;;;;;;;;;;22.90;21.10;;;;;;5126941;27;20388;-45
2022/01/14 03:58:51;;;;;;;;;;;22.80;21.10;;;;;;5121171;27;19927;-47
2022/01/14 04:01:19;;;;;;;;;;;22.90;21.10;;;;;;5122195;27;19936;-51
2022/01/14 04:03:46;;;;;;;;;;;22.90;21.00;;;;;;5126651;27;19923;-46
2022/01/14 04:06:11;;;;;;;;;;;22.80;21.10;;;;;;5121322;27;19927;-44
2022/01/14 04:08:37;;;;;;;;;;;22.90;21.00;;;;;;5126986;27;19976;-46
2022/01/14 04:11:04;;;;;;;;;;;22.80;21.10;;;;;;5101897;27;19954;-45
2022/01/14 04:13:45;;;;;;;;;;;22.90;21.00;;;;;;5100159;28;19930;-46
2022/01/14 04:16:11;;;;;;;;;;;22.80;21.10;;;;;;5126626;27;19929;-46
2022/01/14 04:18:37;;;;;;;;;;;22.90;21.00;;;;;;5120845;27;19928;-44
2022/01/14 04:21:03;;;;;;;;;;;22.90;21.00;;;;;;5120946;27;19989;-46
2022/01/14 04:23:29;;;;;;;;;;;22.90;20.90;;;;;;5126695;27;20466;-47
2022/01/14 04:25:55;;;;;;;;;;;22.90;21.00;;;;;;5121053;27;20427;-45
2022/01/14 04:28:21;;;;;;;;;;;22.90;21.00;;;;;;5122909;27;19959;-51
2022/01/14 04:30:47;;;;;;;;;;;22.90;20.90;;;;;;5123170;28;19928;-46
2022/01/14 04:33:13;;;;;;;;;;;22.80;21.00;;;;;;5120943;28;19930;-48
2022/01/14 04:35:39;;;;;;;;;;;22.90;21.00;;;;;;5126476;28;19970;-46
2022/01/14 04:38:05;;;;;;;;;;;22.80;21.00;;;;;;5120793;28;19931;-46
2022/01/14 04:40:30;;;;;;;;;;;22.90;20.90;;;;;;5120996;28;19927;-45
2022/01/14 04:42:58;;;;;;;;;;;22.90;21.00;;;;;;5126615;28;20382;-44
2022/01/14 04:48:06;;;;;;;;;;;22.90;20.90;;;;;;5120125;28;20033;-52
2022/01/14 04:50:32;;;;;;;;;;;22.80;21.00;;;;;;5108182;27;19928;-48
2022/01/14 04:52:58;;;;;;;;;;;23.00;20.90;;;;;;5124842;27;19929;-50
2022/01/14 04:55:24;;;;;;;;;;;23.00;20.90;;;;;;5128172;27;19931;-58
2022/01/14 04:57:50;;;;;;;;;;;23.00;20.90;;;;;;5127478;27;19927;-52
2022/01/14 05:00:18;;;;;;;;;;;23.00;20.80;;;;;;5125057;27;20372;-49
2022/01/14 05:02:44;;;;;;;;;;;23.00;20.90;;;;;;5130494;27;19930;-51
2022/01/14 05:05:10;;;;;;;;;;;23.10;20.80;;;;;;5124975;27;19963;-51
2022/01/14 05:07:35;;;;;;;;;;;23.10;20.80;;;;;;5123083;27;19923;-49
2022/01/14 05:12:28;;;;;;;;;;;23.20;20.70;;;;;;5124509;27;19927;-51
2022/01/14 05:14:54;;;;;;;;;;;23.20;20.70;;;;;;5124386;27;19923;-52
2022/01/14 05:17:19;;;;;;;;;;;23.10;20.70;;;;;;5129845;27;19976;-50
2022/01/14 05:19:45;;;;;;;;;;;23.20;20.60;;;;;;5124534;27;19930;-53
2022/01/14 05:22:11;;;;;;;;;;;23.20;20.60;;;;;;5129795;27;20435;-50
2022/01/14 05:24:37;;;;;;;;;;;23.20;20.60;;;;;;5124043;27;19931;-47
2022/01/14 05:27:03;;;;;;;;;;;23.20;20.60;;;;;;5122660;27;19973;-48
2022/01/14 05:29:29;;;;;;;;;;;23.30;20.50;;;;;;5129722;27;20019;-51
2022/01/14 05:32:02;;;;;;;;;;;23.10;20.70;;;;;;5124240;27;20268;-49
2022/01/14 05:34:32;;;;;;;;;;;23.20;20.60;;;;;;5105749;27;19923;-49
2022/01/14 05:36:58;;;;;;;;;;;23.20;20.60;;;;;;5129952;27;20022;-48
2022/01/14 05:39:24;;;;;;;;;;;23.30;20.60;;;;;;5124260;27;20295;-48
2022/01/14 05:41:50;;;;;;;;;;;22.90;20.80;;;;;;5128219;27;19933;-54
2022/01/14 05:44:16;;;;;;;;;;;22.80;20.90;;;;;;5124560;27;20014;-48
2022/01/14 05:46:41;;;;;;;;;;;22.80;20.90;;;;;;5123827;27;20286;-47
2022/01/14 05:49:07;;;;;;;;;;;22.80;20.90;;;;;;5129428;27;19931;-49
2022/01/14 05:51:33;;;;;;;;;;;22.70;20.90;;;;;;5123804;27;19931;-47
2022/01/14 05:53:59;;;;;;;;;;;22.70;21.00;;;;;;5123807;27;19927;-50
2022/01/14 05:56:24;;;;;;;;;;;22.70;21.00;;;;;;5129632;27;19977;-48
2022/01/14 05:58:50;;;;;;;;;;;22.70;21.00;;;;;;5123790;27;20275;-46
2022/01/14 06:01:16;;;;;;;;;;;22.70;20.90;;;;;;5124569;27;20017;-53
2022/01/14 06:03:42;;;;;;;;;;;22.60;21.00;;;;;;5126444;27;20390;-47
2022/01/14 06:06:08;;;;;;;;;;;22.70;20.90;;;;;;5123797;27;19928;-46
2022/01/14 06:08:33;;;;;;;;;;;22.60;20.90;;;;;;5129128;27;19984;-46
2022/01/14 06:10:59;;;;;;;;;;;22.80;20.80;;;;;;5123599;27;19924;-46
2022/01/14 06:13:25;;;;;;;;;;;22.70;20.80;;;;;;5123467;27;20039;-45
2022/01/14 06:15:51;;;;;;;;;;;22.70;20.80;;;;;;5129107;27;19952;-47
2022/01/14 06:18:16;;;;;;;;;;;22.70;20.80;;;;;;5123452;27;19928;-45
2022/01/14 06:20:42;;;;;;;;;;;22.70;20.80;;;;;;5104153;27;20374;-48
2022/01/14 06:23:08;;;;;;;;;;;22.60;20.90;;;;;;5127953;27;19935;-45
2022/01/14 06:25:34;;;;;;;;;;;22.70;20.90;;;;;;5123245;27;19966;-46
2022/01/14 06:28:00;;;;;;;;;;;22.60;20.90;;;;;;5128532;27;19924;-46
2022/01/14 06:30:25;;;;;;;;;;;22.70;20.90;;;;;;5123141;27;19937;-45
2022/01/14 06:32:52;;;;;;;;;;;22.60;20.90;;;;;;5123228;27;19967;-44
2022/01/14 06:35:17;;;;;;;;;;;22.60;20.90;;;;;;5128523;27;20027;-44
2022/01/14 06:37:43;;;;;;;;;;;22.70;20.90;;;;;;5123004;27;20393;-45
2022/01/14 06:40:09;;;;;;;;;;;22.70;20.90;;;;;;5121027;27;19992;-48
2022/01/14 06:42:35;;;;;;;;;;;22.70;20.90;;;;;;5128335;27;19923;-45
2022/01/14 06:45:01;;;;;;;;;;;22.60;21.00;;;;;;5122908;27;20348;-46
2022/01/14 06:47:27;;;;;;;;;;;22.60;21.00;;;;;;5128116;27;20105;-44
2022/01/14 06:49:52;;;;;;;;;;;22.70;20.90;;;;;;5122491;27;20068;-44
2022/01/14 06:52:18;;;;;;;;;;;22.60;20.90;;;;;;5122806;27;20395;-44
2022/01/14 06:54:44;;;;;;;;;;;22.60;20.90;;;;;;5128196;27;19924;-47
2022/01/14 06:57:10;;;;;;;;;;;22.70;20.90;;;;;;5122314;27;19956;-45
2022/01/14 06:59:36;;;;;;;;;;;22.80;20.90;;;;;;5120737;27;20302;-45
2022/01/14 07:02:01;;;;;;;;;;;22.70;20.90;;;;;;5128001;27;19931;-47
2022/01/14 07:04:27;;;;;;;;;;;22.70;20.90;;;;;;5122464;27;19924;-44
2022/01/14 07:06:53;;;;;;;;;;;22.70;20.90;;;;;;5127664;27;19972;-46
2022/01/14 07:09:19;;;;;;;;;;;22.60;20.90;;;;;;5122435;27;20310;-44
2022/01/14 07:11:52;;;;;;;;;;;22.70;20.80;;;;;;5122411;27;19930;-44
2022/01/14 07:14:17;;;;;;;;;;;22.70;20.80;;;;;;5124581;27;20233;-45
2022/01/14 07:16:43;;;;;;;;;;;22.80;20.80;;;;;;5120673;27;20129;-46
2022/01/14 07:19:09;;;;;;;;;;;22.60;20.90;;;;;;5121484;27;20142;-44
2022/01/14 07:21:35;;;;;;;;;;;22.70;20.80;;;;;;5127452;27;19982;-46
2022/01/14 07:24:01;;;;;;;;;;;22.70;20.70;;;;;;5103585;27;19923;-45
2022/01/14 07:26:27;;;;;;;;;;;22.60;20.80;;;;;;5122936;27;19938;-53
2022/01/14 07:28:53;;;;;;;;;;;22.70;20.70;;;;;;5126974;27;19924;-45
2022/01/14 07:31:18;;;;;;;;;;;22.80;20.60;;;;;;5122326;27;19992;-48
2022/01/14 07:33:44;;;;;;;;;;;22.70;20.70;;;;;;5127422;27;19927;-46
2022/01/14 07:36:10;;;;;;;;;;;22.70;20.70;;;;;;5119847;27;19923;-43
2022/01/14 07:38:36;;;;;;;;;;;22.80;20.50;;;;;;5121692;27;19923;-46
2022/01/14 07:41:01;;;;;;;;;;;22.80;20.50;;;;;;5127393;27;19923;-43
2022/01/14 07:43:27;;;;;;;;;;;22.70;20.70;;;;;;5121491;27;20358;-45
2022/01/14 07:45:53;;;;;;;;;;;22.70;20.50;;;;;;5121520;27;19931;-45
2022/01/14 07:48:19;;;;;;;;;;;22.80;20.60;;;;;;5127161;27;19924;-45
2022/01/14 07:50:45;;;;;;;;;;;22.70;20.60;;;;;;5121544;27;20476;-44
2022/01/14 07:53:10;;;;;;;;;;;22.70;20.60;;;;;;5126087;27;19971;-47
2022/01/14 07:55:36;;;;;;;;;;;22.80;20.50;;;;;;5120330;27;19976;-45
2022/01/14 07:58:02;;;;;;;;;;;22.80;20.50;;;;;;5121476;27;19991;-46
2022/01/14 08:00:28;;;;;;;;;;;22.70;20.60;;;;;;5126773;27;19935;-50
2022/01/14 08:02:54;;;;;;;;;;;22.80;20.60;;;;;;5121123;27;20028;-45
2022/01/14 08:05:20;;;;;;;;;;;22.80;20.50;;;;;;5121342;27;19924;-47
2022/01/14 08:07:47;;;;;;;;;;;22.80;20.50;;;;;;5126706;27;19931;-46
2022/01/14 08:10:13;;;;;;;;;;;22.90;20.40;;;;;;5121362;27;19928;-45
2022/01/14 08:12:40;;;;;;;;;;;22.80;20.50;;;;;;5124842;27;20008;-45
2022/01/14 08:15:07;;;;;;;;;;;22.90;20.40;;;;;;5121403;27;20290;-46
2022/01/14 08:17:33;;;;;;;;;;;22.80;20.50;;;;;;5121146;27;19934;-52
2022/01/14 08:19:58;;;;;;;;;;;22.90;20.40;;;;;;5126224;27;19928;-47
2022/01/14 08:22:24;;;;;;;;;;;22.90;20.50;;;;;;5120920;27;20014;-47
2022/01/14 08:24:50;;;;;;;;;;;23.00;20.40;;;;;;5120779;27;19927;-47
2022/01/14 08:27:16;;;;;;;;;;;22.90;20.50;;;;;;5126998;27;20318;-45
2022/01/14 08:29:42;;;;;;;;;;;22.90;20.50;;;;;;5120979;27;19924;-48
2022/01/14 08:32:07;;;;;;;;;;;22.90;20.50;;;;;;5123708;28;19950;-54
2022/01/14 08:34:33;;;;;;;;;;;23.00;20.40;;;;;;5122215;28;20396;-46
2022/01/14 08:36:59;;;;;;;;;;;23.00;20.50;;;;;;5120945;28;19924;-46
2022/01/14 08:39:25;;;;;;;;;;;22.80;20.60;;;;;;5126269;28;19931;-46
2022/01/14 08:41:51;;;;;;;;;;;23.10;20.40;;;;;;5102268;28;19924;-46
2022/01/14 08:44:16;;;;;;;;;;;23.10;20.50;;;;;;5120820;28;20328;-46
2022/01/14 08:46:42;;;;;;;;;;;23.00;20.50;;;;;;5126517;28;20022;-45
2022/01/14 08:49:09;;;;;;;;;;;23.10;20.50;;;;;;5084209;28;19923;-53
2022/01/14 08:51:36;;;;;;;;;;;23.10;20.50;;;;;;5122192;28;20441;-55
2022/01/14 08:54:02;;;;;;;;;;;23.20;20.50;;;;;;5106081;28;20038;-46
2022/01/14 08:56:31;;;;;;;;;;;23.30;20.40;;;;;;5120484;28;19968;-44
2022/01/14 08:58:57;;;;;;;;;;;23.30;20.30;;;;;;5105903;28;20061;-44
2022/01/14 09:01:22;;;;;;;;;;;23.20;20.50;;;;;;5120776;28;19927;-46
2022/01/14 09:03:48;;;;;;;;;;;23.20;20.50;;;;;;5120665;28;20294;-45
2022/01/14 09:06:14;;;;;;;;;;;23.30;20.50;;;;;;5126114;28;19924;-44
2022/01/14 09:08:40;;;;;;;;;;;23.30;20.50;;;;;;5118938;28;19931;-46
2022/01/14 09:11:07;;;;;;;;;;;23.30;20.50;;;;;;5120694;28;20424;-46
2022/01/14 09:13:33;;;;;;;;;;;23.20;20.50;;;;;;5126007;28;19959;-44
2022/01/14 09:15:59;;;;;;;;;;;23.10;20.60;;;;;;5120265;28;19927;-45
2022/01/14 09:18:25;;;;;;;;;;;23.10;20.70;;;;;;5125826;28;20431;-45
2022/01/14 09:20:51;;;;;;;;;;;23.00;20.70;;;;;;5120494;28;20382;-47
2022/01/14 09:23:23;;;;;;;;;;;23.10;20.70;;;;;;5120707;28;19934;-47
2022/01/14 09:25:50;;;;;;;;;;;23.10;20.70;;;;;;5125374;28;20303;-49
2022/01/14 09:28:15;;;;;;;;;;;23.10;20.80;;;;;;5119506;28;20085;-49
2022/01/14 09:30:41;;;;;;;;;;;23.20;20.70;;;;;;5120540;28;19923;-48
2022/01/14 09:33:07;;;;;;;;;;;23.20;20.70;;;;;;5107530;28;19927;-50
2022/01/14 09:35:33;;;;;;;;;;;23.20;20.70;;;;;;5120342;27;19931;-46
2022/01/14 09:37:59;;;;;;;;;;;23.20;20.70;;;;;;5127253;27;20374;-57
2022/01/14 09:40:25;;;;;;;;;;;23.20;20.70;;;;;;5126982;27;20050;-48
2022/01/14 09:42:51;;;;;;;;;;;23.20;20.80;;;;;;5124082;27;19965;-50
2022/01/14 09:45:17;;;;;;;;;;;23.30;20.70;;;;;;5127584;27;20419;-48
2022/01/14 09:47:45;;;;;;;;;;;23.20;20.80;;;;;;5123815;27;19952;-46
2022/01/14 09:50:11;;;;;;;;;;;23.30;20.70;;;;;;5123915;27;19923;-46
2022/01/14 09:52:38;;;;;;;;;;;23.30;20.70;;;;;;5129156;27;20296;-46
2022/01/14 09:55:03;;;;;;;;;;;23.30;20.80;;;;;;5123868;27;19924;-47
2022/01/14 09:57:29;;;;;;;;;;;23.30;20.70;;;;;;5123967;27;19950;-48
2022/01/14 09:59:55;;;;;;;;;;;23.30;20.80;;;;;;5129247;27;20371;-45
2022/01/14 10:02:34;;;;;;;;;;;23.20;20.80;;;;;;5123594;27;20267;-46
2022/01/14 10:05:00;;;;;;;;;;;23.30;20.80;;;;;;5127309;27;19931;-55
2022/01/14 10:07:27;;;;;;;;;;;23.30;20.80;;;;;;5124580;27;20276;-45
2022/01/14 10:09:58;;;;;;;;;;;23.30;20.80;;;;;;5123652;27;20363;-48
2022/01/14 10:12:24;;;;;;;;;;;23.30;20.80;;;;;;5128726;27;19923;-48
2022/01/14 10:14:56;;;;;;;;;;;23.30;20.90;;;;;;5123731;27;19963;-53
2022/01/14 10:17:22;;;;;;;;;;;23.20;20.90;;;;;;5123504;27;20327;-52
2022/01/14 10:19:48;;;;;;;;;;;22.90;21.10;;;;;;5128882;27;20406;-50
2022/01/14 10:22:22;;;;;;;;;;;22.90;21.10;;;;;;5121250;27;19924;-49
2022/01/14 10:24:57;;;;;;;;;;;23.00;21.10;;;;;;5123323;27;20110;-48
2022/01/14 10:27:36;;;;;;;;;;;23.00;21.00;;;;;;5128786;27;20188;-50
2022/01/14 10:30:25;;;;;;;;;;;22.90;21.10;;;;;;5123200;27;19931;-49
2022/01/14 10:32:54;;;;;;;;;;;23.00;21.10;;;;;;5107201;27;19980;-46
2022/01/14 10:35:20;;;;;;;;;;;23.00;21.10;;;;;;5110429;27;19923;-47
2022/01/14 10:37:46;;;;;;;;;;;22.90;21.10;;;;;;5123111;27;19923;-46
2022/01/14 10:40:16;;;;;;;;;;;23.00;21.00;;;;;;5121653;27;19958;-48
2022/01/14 10:42:42;;;;;;;;;;;23.00;21.10;;;;;;5127848;27;19975;-48
2022/01/14 10:45:21;;;;;;;;;;;23.00;21.10;;;;;;5123061;27;19928;-46
2022/01/14 10:47:56;;;;;;;;;;;22.90;21.20;;;;;;5122406;27;20026;-48
2022/01/14 10:50:26;;;;;;;;;;;22.80;21.20;;;;;;5128356;27;19929;-46
2022/01/14 10:52:52;;;;;;;;;;;23.00;21.10;;;;;;5122941;27;20347;-49
2022/01/14 10:55:31;;;;;;;;;;;23.00;21.10;;;;;;5128372;27;19930;-46
2022/01/14 10:57:57;;;;;;;;;;;23.00;21.10;;;;;;5107961;27;20001;-50
2022/01/14 11:00:25;;;;;;;;;;;22.90;21.20;;;;;;5121280;27;20419;-46
2022/01/14 11:02:53;;;;;;;;;;;23.00;21.20;;;;;;5127908;27;19946;-50
2022/01/14 11:05:20;;;;;;;;;;;23.10;21.10;;;;;;5122301;27;20382;-47
2022/01/14 11:07:46;;;;;;;;;;;23.00;21.20;;;;;;5122156;27;19934;-47
2022/01/14 11:10:25;;;;;;;;;;;23.00;21.20;;;;;;5128096;27;19927;-47
2022/01/14 11:12:52;;;;;;;;;;;23.00;21.20;;;;;;5104136;27;19952;-46
2022/01/14 11:15:18;;;;;;;;;;;23.00;21.20;;;;;;5122082;27;19948;-49
2022/01/14 11:17:46;;;;;;;;;;;23.10;21.10;;;;;;5125608;27;19931;-48
2022/01/14 11:20:12;;;;;;;;;;;23.00;21.20;;;;;;5122247;27;19931;-49
2022/01/14 11:25:22;;;;;;;;;;;23.10;21.10;;;;;;5127377;27;20046;-46
2022/01/14 11:27:55;;;;;;;;;;;23.10;21.10;;;;;;5086031;27;19988;-46
2022/01/14 11:30:30;;;;;;;;;;;23.10;21.10;;;;;;5122566;27;20027;-53
2022/01/14 11:32:56;;;;;;;;;;;23.10;21.10;;;;;;5127774;27;19934;-47
2022/01/14 11:35:22;;;;;;;;;;;23.10;21.10;;;;;;5121089;27;20324;-47
2022/01/14 11:37:48;;;;;;;;;;;23.00;21.20;;;;;;5126482;27;19949;-46
2022/01/14 11:40:15;;;;;;;;;;;23.10;21.10;;;;;;5121833;27;20054;-46
2022/01/14 11:42:58;;;;;;;;;;;23.20;21.10;;;;;;5121634;27;20499;-47
2022/01/14 11:45:50;;;;;;;;;;;23.20;21.10;;;;;;5127096;27;20366;-47
2022/01/14 11:48:32;;;;;;;;;;;23.20;21.10;;;;;;5127442;27;19923;-45
2022/01/14 11:50:58;;;;;;;;;;;23.30;21.00;;;;;;5121957;27;20367;-51
2022/01/14 11:53:35;;;;;;;;;;;23.20;21.10;;;;;;5125769;27;19928;-54
2022/01/14 11:56:01;;;;;;;;;;;23.10;21.20;;;;;;5126101;27;20032;-48
2022/01/14 11:58:27;;;;;;;;;;;23.10;21.20;;;;;;5121279;27;20477;-49
2022/01/14 12:00:53;;;;;;;;;;;23.10;21.20;;;;;;5126693;27;19931;-47
2022/01/14 12:03:21;;;;;;;;;;;22.90;21.40;;;;;;5121194;27;19978;-47
2022/01/14 12:05:50;;;;;;;;;;;23.10;21.20;;;;;;5121285;27;20408;-47
2022/01/14 12:08:20;;;;;;;;;;;23.10;21.30;;;;;;5127074;27;19934;-47
2022/01/14 12:10:47;;;;;;;;;;;23.10;21.40;;;;;;5121381;27;19923;-47
2022/01/14 12:13:38;;;;;;;;;;;23.10;21.30;;;;;;5119575;27;19956;-47
2022/01/14 12:16:09;;;;;;;;;;;23.10;21.40;;;;;;5126704;27;20406;-48
2022/01/14 12:18:53;;;;;;;;;;;23.20;21.40;;;;;;5121103;27;20073;-46
2022/01/14 12:21:19;;;;;;;;;;;23.20;21.40;;;;;;5120738;27;19927;-46
2022/01/14 12:23:46;;;;;;;;;;;23.20;21.40;;;;;;5122641;27;19934;-47
2022/01/14 12:26:16;;;;;;;;;;;23.20;21.40;;;;;;5121252;27;19927;-47
2022/01/14 12:28:42;;;;;;;;;;;23.10;21.50;;;;;;5121140;27;19923;-45
2022/01/14 12:31:08;;;;;;;;;;;23.20;21.40;;;;;;5124814;27;19923;-49
2022/01/14 12:33:37;;;;;;;;;;;23.30;21.30;;;;;;5120628;27;19923;-47
2022/01/14 12:36:09;;;;;;;;;;;23.30;21.30;;;;;;5124230;28;19934;-57
2022/01/14 12:38:35;;;;;;;;;;;23.20;21.40;;;;;;5126103;28;19923;-55
2022/01/14 12:41:01;;;;;;;;;;;22.90;21.70;;;;;;5120806;28;19959;-52
2022/01/14 12:43:26;;;;;;;;;;;22.80;21.90;;;;;;5126628;28;19931;-54
2022/01/14 12:45:59;;;;;;;;;;;22.80;22.00;;;;;;5120883;28;19938;-54
2022/01/14 12:48:39;;;;;;;;;;;22.70;22.10;;;;;;5120689;28;19949;-54
2022/01/14 12:51:08;;;;;;;;;;;22.70;22.10;;;;;;5124842;28;20284;-54
2022/01/14 12:53:34;;;;;;;;;;;22.70;22.20;;;;;;5121072;28;20015;-54
2022/01/14 12:56:01;;;;;;;;;;;22.70;22.30;;;;;;5120885;28;19924;-52
2022/01/14 12:58:26;;;;;;;;;;;22.70;22.30;;;;;;5126147;28;19934;-52
2022/01/14 13:01:05;;;;;;;;;;;22.70;22.30;;;;;;5120927;28;19928;-55
2022/01/14 13:03:31;;;;;;;;;;;22.70;22.40;;;;;;5102523;28;20188;-53
2022/01/14 13:05:59;;;;;;;;;;;22.70;22.40;;;;;;5126434;28;19927;-50
2022/01/14 13:08:29;;;;;;;;;;;22.70;22.50;;;;;;5118911;28;19976;-55
2022/01/14 13:11:04;;;;;;;;;;;22.60;22.70;;;;;;5125278;27;20390;-57
2022/01/14 13:13:30;;;;;;;;;;;22.70;22.60;;;;;;5130124;27;19998;-50
2022/01/14 13:16:04;;;;;;;;;;;22.60;22.60;;;;;;5124372;27;19923;-50
2022/01/14 13:18:37;;;;;;;;;;;22.70;22.60;;;;;;5129841;27;20018;-54
2022/01/14 13:21:03;;;;;;;;;;;22.70;22.70;;;;;;5108760;27;19952;-51
2022/01/14 13:23:29;;;;;;;;;;;22.70;22.70;;;;;;5124540;27;19923;-49
2022/01/14 13:25:55;;;;;;;;;;;22.70;22.70;;;;;;5129293;27;19923;-54
2022/01/14 13:28:20;;;;;;;;;;;22.70;22.80;;;;;;5104911;27;20174;-53
2022/01/14 13:30:46;;;;;;;;;;;22.70;22.80;;;;;;5124333;27;19938;-52
2022/01/14 13:33:14;;;;;;;;;;;22.80;22.80;;;;;;5129700;27;19977;-50
2022/01/14 13:35:40;;;;;;;;;;;22.70;22.80;;;;;;5124086;27;20026;-54
2022/01/14 13:38:07;;;;;;;;;;;22.70;22.90;;;;;;5124176;27;21160;-56
2022/01/14 13:40:34;;;;;;;;;;;22.80;22.90;;;;;;5129771;27;19927;-51
2022/01/14 13:43:09;;;;;;;;;;;22.70;23.00;;;;;;5124150;27;19958;-50
2022/01/14 13:45:40;;;;;;;;;;;22.70;23.00;;;;;;5127453;27;19923;-53
2022/01/14 13:48:19;;;;;;;;;;;22.70;23.10;;;;;;5125524;27;20020;-51
2022/01/14 13:50:45;;;;;;;;;;;22.70;23.10;;;;;;5123755;27;19931;-50
2022/01/14 13:53:12;;;;;;;;;;;22.70;23.10;;;;;;5129235;27;19941;-52
2022/01/14 13:55:42;;;;;;;;;;;22.60;23.20;;;;;;5123954;27;19987;-51
2022/01/14 13:58:19;;;;;;;;;;;22.80;23.00;;;;;;5123900;27;19930;-51
2022/01/14 14:00:45;;;;;;;;;;;22.70;23.20;;;;;;5129317;27;19934;-52
2022/01/14 14:03:14;;;;;;;;;;;22.70;23.20;;;;;;5122520;27;19927;-51
2022/01/14 14:05:43;;;;;;;;;;;22.70;23.20;;;;;;5122857;27;20426;-50
2022/01/14 14:09:00;;;;;;;;;;;22.80;23.20;;;;;;5129242;27;19927;-52
2022/01/14 14:16:54;;;;;;;;;;;22.80;23.20;;;;;;5123575;27;19931;-49
2022/01/14 14:19:20;;;;;;;;;;;22.80;23.20;;;;;;5129195;27;19930;-51
2022/01/14 14:22:03;;;;;;;;;;;22.80;23.30;;;;;;5103000;28;19923;-52
2022/01/14 14:24:29;;;;;;;;;;;22.70;23.40;;;;;;5124749;27;19949;-58
2022/01/14 14:26:55;;;;;;;;;;;22.80;23.30;;;;;;5127415;27;19988;-51
2022/01/14 14:29:22;;;;;;;;;;;22.80;23.30;;;;;;5086739;27;19963;-52
2022/01/14 14:31:47;;;;;;;;;;;22.80;23.40;;;;;;5128703;27;19928;-50
2022/01/14 14:34:13;;;;;;;;;;;22.80;23.40;;;;;;5123466;27;20375;-50
2022/01/14 14:36:40;;;;;;;;;;;22.90;23.30;;;;;;5123284;27;19981;-51
2022/01/14 14:39:06;;;;;;;;;;;22.80;23.40;;;;;;5110037;27;20379;-50
2022/01/14 14:41:32;;;;;;;;;;;22.80;23.40;;;;;;5121564;27;19977;-49
2022/01/14 14:43:58;;;;;;;;;;;22.80;23.60;;;;;;5123369;27;20022;-48
2022/01/14 14:46:24;;;;;;;;;;;22.80;23.50;;;;;;5128414;27;20298;-49
2022/01/14 14:48:52;;;;;;;;;;;22.80;23.50;;;;;;5122830;27;19969;-53
2022/01/14 14:51:18;;;;;;;;;;;22.80;23.60;;;;;;5128110;27;19927;-52
2022/01/14 14:53:43;;;;;;;;;;;22.80;23.60;;;;;;5122902;27;19991;-51
2022/01/14 14:56:09;;;;;;;;;;;22.80;23.50;;;;;;5104614;27;19935;-52
2022/01/14 14:58:38;;;;;;;;;;;22.70;23.70;;;;;;5126957;27;19963;-52